Highland Park, Pennsylvania
Current Conditions -  °F | °C
As of 12:54 PM on Sunday 21 Dec 2014 (Local Time) from KPHL Reporting Station
Scattered Clouds Scattered Clouds  
Wind Chill: 33°   Ceiling: Unl
Heat Index: 39°   Visibility: 10mi
Dew Point: 22°   Wind: 9mph
Humidity: 50%   Direction: 330°NNW
Pressure: 30.31"   Gusts: NA
Location:  39.9602°N, 75.2702°W
Report Text: KPHL 211754Z 33008KT 10SM FEW025 SCT035 SCT070 04/M06 A3031 RMK AO2 SLP264 T00391056 10039 21006 58015
Loading
Personal Weather Stations






























Interactive Weather Map New forecast layout! Learn more

10-Day Weather Forecast

Advertisements
Track Severe Weather on mobile